To NAV CANADA Home Page Login to a new session Search on AWWS site Disclaimer Vers la page française équivalente Tips FAQ What's new on the site To the Forecasts and Observations / NOTAM section To "File a Flight Plan" website Publications and other links Update of the User's profile FIC Telephone Numbers My Weather Data Folder Route Weather Data Regional Weather Data Local Weather Data To the Forecasts and Observations / NOTAM section
Request Generated 04/23/2018 at 17:17:23 UTC . Weather information available at that time is displayed.

METAR/TAF

WIARTON/ON    

METAR CYVV 231700Z 32003KT 280V360 15SM SKC 16/M01 A3030 RMK CI TR
SLP266=
METAR CYVV 231600Z 32003KT 15SM SKC 13/M01 A3032 RMK CI TR SLP274=
METAR CYVV 231500Z 28004KT 160V300 15SM SKC 10/M00 A3035 RMK SLP284=

TAF CYVV 231340Z 2314/2323 VRB03KT P6SM SKC
BECMG 2316/2318 14008KT
RMK NXT FCST BY 232000Z=
Your time UTC time
Weather data provided by Environment Canada and NAV CANADA